createdAt,value
2019-04-06T00:00:57.600Z,140.57
2019-04-06T00:03:28.528Z,139.27
2019-04-06T00:05:59.660Z,136.10
2019-04-06T00:08:30.555Z,140.40
2019-04-06T00:11:01.499Z,136.00
2019-04-06T00:13:32.283Z,133.80
2019-04-06T00:16:03.218Z,142.47
2019-04-06T00:18:34.070Z,134.22
2019-04-06T00:21:05.075Z,140.18
2019-04-06T00:23:35.981Z,133.70
2019-04-06T00:26:06.939Z,132.80
2019-04-06T00:28:37.789Z,121.80
2019-04-06T00:31:17.712Z,133.60
2019-04-06T00:33:48.872Z,124.60
2019-04-06T00:36:19.728Z,140.70
2019-04-06T00:38:50.566Z,132.87
2019-04-06T00:41:21.501Z,133.10
2019-04-06T00:43:52.360Z,130.37
2019-04-06T00:46:23.308Z,125.57
2019-04-06T00:48:54.398Z,125.77
2019-04-06T00:51:25.527Z,127.57
2019-04-06T00:53:56.674Z,128.67
2019-04-06T00:56:27.597Z,131.27
2019-04-06T00:58:59.659Z,111.87
2019-04-06T01:01:31.411Z,120.27
2019-04-06T01:04:03.449Z,133.17
2019-04-06T01:06:34.713Z,122.60
2019-04-06T01:09:08.558Z,134.17
2019-04-06T01:11:39.496Z,112.53
2019-04-06T01:14:10.352Z,115.97
2019-04-06T01:16:41.266Z,130.43
2019-04-06T01:19:12.556Z,122.50
2019-04-06T01:21:43.478Z,124.90
2019-04-06T01:24:14.720Z,127.07
2019-04-06T01:26:45.577Z,116.73
2019-04-06T01:29:16.773Z,122.43
2019-04-06T01:31:47.912Z,123.50
2019-04-06T01:34:18.807Z,119.08
2019-04-06T01:36:49.801Z,112.47
2019-04-06T01:39:21.147Z,108.90
2019-04-06T01:41:52.392Z,114.23
2019-04-06T01:44:26.214Z,104.58
2019-04-06T01:46:57.123Z,116.37
2019-04-06T01:49:27.969Z,117.80
2019-04-06T01:51:59.178Z,108.47
2019-04-06T01:54:30.303Z,117.93
2019-04-06T01:57:01.543Z,116.60
2019-04-06T01:59:32.831Z,109.17
2019-04-06T02:02:18.194Z,107.07
2019-04-06T02:04:49.397Z,107.00
2019-04-06T02:07:20.384Z,106.90
2019-04-06T02:09:51.400Z,103.55
2019-04-06T02:12:22.484Z,104.23
2019-04-06T02:14:53.375Z,99.10
2019-04-06T02:17:24.585Z,102.17
2019-04-06T02:19:55.451Z,107.43
2019-04-06T02:22:26.571Z,107.77
2019-04-06T02:24:57.727Z,113.43
2019-04-06T02:27:29.359Z,93.80
2019-04-06T02:30:18.576Z,99.30
2019-04-06T02:33:07.324Z,107.07
2019-04-06T02:36:00.019Z,95.50
2019-04-06T02:38:48.767Z,90.70
2019-04-06T02:41:37.871Z,95.57
2019-04-06T02:44:09.528Z,84.03
2019-04-06T02:46:40.455Z,76.37
2019-04-06T02:49:11.552Z,77.73
2019-04-06T02:51:42.460Z,77.97
2019-04-06T02:54:13.578Z,75.10
2019-04-06T02:56:47.961Z,66.22
2019-04-06T02:59:19.293Z,73.40
2019-04-06T03:01:50.424Z,67.35
2019-04-06T03:04:21.266Z,61.10
2019-04-06T03:06:52.327Z,57.57
2019-04-06T03:09:23.627Z,56.20
2019-04-06T03:11:54.497Z,50.87
2019-04-06T03:14:25.349Z,57.60
2019-04-06T03:16:56.188Z,57.80
2019-04-06T03:19:27.258Z,60.50
2019-04-06T03:21:58.050Z,60.63
2019-04-06T03:24:29.369Z,56.37
2019-04-06T03:27:02.625Z,55.57
2019-04-06T03:29:33.081Z,58.93
2019-04-06T03:32:04.499Z,58.73
2019-04-06T03:34:35.739Z,50.83
2019-04-06T03:37:06.594Z,47.27
2019-04-06T03:39:37.521Z,47.03
2019-04-06T03:42:10.636Z,52.27
2019-04-06T03:44:40.900Z,49.03
2019-04-06T03:47:11.737Z,54.63
2019-04-06T03:49:42.962Z,50.13
2019-04-06T03:52:13.770Z,52.17
2019-04-06T03:54:44.937Z,62.27
2019-04-06T03:57:17.301Z,68.25
2019-04-06T03:59:48.640Z,70.57
2019-04-06T04:02:19.474Z,65.10
2019-04-06T04:04:50.310Z,71.00
2019-04-06T04:07:21.148Z,70.10
2019-04-06T04:09:52.009Z,70.67
2019-04-06T04:12:22.952Z,76.87
2019-04-06T04:14:53.861Z,65.62
2019-04-06T04:17:26.056Z,64.90
2019-04-06T04:19:56.895Z,65.83
2019-04-06T04:22:28.275Z,61.20
2019-04-06T04:24:59.129Z,56.80
2019-04-06T04:27:30.939Z,67.22
2019-04-06T04:30:02.276Z,61.28
2019-04-06T04:32:33.509Z,64.07
2019-04-06T04:35:04.491Z,60.40
2019-04-06T04:37:35.274Z,59.57
2019-04-06T04:40:06.285Z,47.87
2019-04-06T04:42:38.410Z,52.10
2019-04-06T04:45:09.380Z,48.27
2019-04-06T04:47:40.326Z,42.37
2019-04-06T04:50:11.423Z,44.53
2019-04-06T04:52:42.506Z,45.13
2019-04-06T04:55:13.637Z,39.13
2019-04-06T04:57:45.668Z,36.50
2019-04-06T05:00:17.920Z,40.10
2019-04-06T05:02:48.979Z,40.33
2019-04-06T05:05:20.061Z,36.97
2019-04-06T05:07:51.481Z,46.30
2019-04-06T05:10:22.560Z,46.57
2019-04-06T05:12:53.574Z,50.58
2019-04-06T05:15:58.995Z,64.60
2019-04-06T05:18:29.856Z,84.85
2019-04-06T05:21:00.695Z,74.93
2019-04-06T05:23:31.979Z,58.80
2019-04-06T05:26:02.801Z,61.50
2019-04-06T05:28:33.640Z,56.60
2019-04-06T05:31:04.615Z,55.77
2019-04-06T05:33:36.147Z,52.83
2019-04-06T05:36:07.267Z,60.47
2019-04-06T05:38:38.992Z,53.73
2019-04-06T05:41:09.806Z,58.43
2019-04-06T05:43:40.824Z,55.50
2019-04-06T05:46:11.831Z,63.92
2019-04-06T05:48:43.812Z,64.20
2019-04-06T05:51:14.890Z,44.47
2019-04-06T05:53:45.730Z,64.45
2019-04-06T05:56:16.544Z,57.40
2019-04-06T05:58:47.934Z,60.33
2019-04-06T06:01:19.466Z,87.80
2019-04-06T06:03:50.802Z,75.37
2019-04-06T06:06:21.855Z,81.63
2019-04-06T06:08:52.667Z,65.77
2019-04-06T06:11:23.976Z,54.97
2019-04-06T06:13:55.034Z,88.23
2019-04-06T06:16:27.166Z,58.97
2019-04-06T06:18:58.842Z,52.83
2019-04-06T06:21:30.069Z,51.63
2019-04-06T06:24:01.292Z,50.35
2019-04-06T06:26:32.192Z,49.43
2019-04-06T06:29:03.279Z,46.73
2019-04-06T06:31:34.299Z,52.43
2019-04-06T06:34:09.370Z,50.30
2019-04-06T06:36:40.617Z,48.97
2019-04-06T06:39:11.457Z,48.50
2019-04-06T06:41:42.549Z,47.07
2019-04-06T06:44:13.741Z,41.23
2019-04-06T06:46:44.618Z,46.10
2019-04-06T06:49:15.493Z,49.33
2019-04-06T06:51:46.400Z,39.87
2019-04-06T06:54:17.745Z,41.07
2019-04-06T06:56:48.557Z,36.73
2019-04-06T06:59:20.190Z,38.60
2019-04-06T07:01:51.005Z,45.97
2019-04-06T07:04:21.932Z,50.23
2019-04-06T07:06:53.004Z,41.87
2019-04-06T07:09:23.831Z,41.43
2019-04-06T07:11:54.873Z,42.97
2019-04-06T07:14:25.761Z,41.83
2019-04-06T07:16:56.608Z,38.50
2019-04-06T07:19:27.444Z,39.57
2019-04-06T07:21:58.662Z,38.17
2019-04-06T07:24:29.539Z,44.13
2019-04-06T07:27:00.834Z,39.43
2019-04-06T07:29:31.925Z,42.83
2019-04-06T07:32:03.058Z,41.07
2019-04-06T07:34:34.386Z,43.77
2019-04-06T07:37:05.214Z,44.75
2019-04-06T07:39:36.069Z,40.52
2019-04-06T07:42:06.910Z,48.52
2019-04-06T07:44:38.031Z,42.37
2019-04-06T07:47:09.210Z,48.73
2019-04-06T07:49:40.382Z,42.60
2019-04-06T07:52:11.473Z,47.53
2019-04-06T07:54:42.492Z,54.53
2019-04-06T07:57:13.733Z,46.27
2019-04-06T07:59:44.794Z,50.20
2019-04-06T08:02:15.766Z,53.53
2019-04-06T08:04:46.687Z,55.27
2019-04-06T08:07:17.649Z,52.57
2019-04-06T08:09:48.809Z,57.07
2019-04-06T08:12:20.014Z,63.07
2019-04-06T08:14:51.853Z,57.45
2019-04-06T08:17:22.783Z,56.23
2019-04-06T08:19:53.686Z,60.97
2019-04-06T08:22:24.609Z,58.50
2019-04-06T08:24:55.757Z,48.80
2019-04-06T08:27:26.687Z,54.63
2019-04-06T08:29:58.905Z,48.20
2019-04-06T08:32:30.350Z,54.00
2019-04-06T08:35:01.306Z,54.57
2019-04-06T08:37:32.192Z,51.07
2019-04-06T08:40:05.319Z,58.52
2019-04-06T08:42:36.271Z,61.03
2019-04-06T08:45:07.437Z,60.53
2019-04-06T08:47:39.409Z,65.00
2019-04-06T08:50:10.438Z,62.67
2019-04-06T08:52:41.586Z,63.63
2019-04-06T08:55:12.653Z,60.60
2019-04-06T08:57:43.664Z,64.93
2019-04-06T09:00:14.993Z,62.43
2019-04-06T09:02:46.383Z,56.87
2019-04-06T09:05:17.422Z,58.87
2019-04-06T09:07:48.237Z,64.00
2019-04-06T09:10:19.062Z,69.03
2019-04-06T09:12:50.121Z,60.40
2019-04-06T09:15:20.986Z,61.33
2019-04-06T09:17:53.608Z,64.27
2019-04-06T09:20:24.476Z,67.57
2019-04-06T09:22:56.297Z,65.30
2019-04-06T09:25:27.547Z,59.93
2019-04-06T09:27:59.412Z,58.90
2019-04-06T09:30:30.527Z,68.15
2019-04-06T09:33:01.433Z,62.03
2019-04-06T09:35:32.553Z,65.25
2019-04-06T09:38:04.136Z,60.03
2019-04-06T09:40:34.906Z,61.68
2019-04-06T09:43:05.818Z,61.18
2019-04-06T09:45:49.291Z,63.87
2019-04-06T09:48:30.659Z,62.47
2019-04-06T09:51:17.634Z,63.68
2019-04-06T09:54:08.529Z,72.87
2019-04-06T09:57:04.658Z,61.80
2019-04-06T09:59:51.071Z,66.27
2019-04-06T10:02:28.125Z,62.85
2019-04-06T10:05:08.943Z,62.80
2019-04-06T10:07:55.460Z,65.97
2019-04-06T10:10:35.262Z,66.47
2019-04-06T10:13:24.737Z,61.17
2019-04-06T10:16:02.983Z,62.13
2019-04-06T10:19:02.112Z,64.27
2019-04-06T10:21:58.846Z,65.90
2019-04-06T10:24:47.903Z,65.95
2019-04-06T10:27:27.892Z,62.97
2019-04-06T10:30:11.552Z,67.00
2019-04-06T10:32:48.400Z,67.70
2019-04-06T10:35:34.351Z,57.43
2019-04-06T10:38:23.906Z,61.92
2019-04-06T10:41:26.194Z,67.23
2019-04-06T10:44:09.879Z,56.90
2019-04-06T10:46:47.618Z,64.97
2019-04-06T10:49:40.035Z,63.87
2019-04-06T10:52:33.320Z,60.70
2019-04-06T10:55:17.555Z,56.67
2019-04-06T10:57:56.476Z,64.20
2019-04-06T11:00:55.363Z,60.90
2019-04-06T11:03:31.956Z,60.03
2019-04-06T11:06:20.869Z,59.33
2019-04-06T11:09:13.916Z,61.13
2019-04-06T11:12:02.676Z,62.33
2019-04-06T11:15:05.015Z,59.77
2019-04-06T11:17:54.017Z,56.17
2019-04-06T11:20:48.385Z,65.57
2019-04-06T11:23:35.557Z,56.23
2019-04-06T11:26:26.700Z,62.70
2019-04-06T11:29:17.030Z,63.47
2019-04-06T11:32:09.946Z,62.90
2019-04-06T11:34:52.070Z,56.20
2019-04-06T11:37:45.248Z,58.27
2019-04-06T11:40:42.189Z,58.03
2019-04-06T11:43:30.787Z,56.50
2019-04-06T11:46:10.928Z,56.87
2019-04-06T11:48:52.440Z,62.43
2019-04-06T11:51:41.345Z,53.73
2019-04-06T11:54:29.898Z,52.45
2019-04-06T11:57:08.881Z,55.63
2019-04-06T12:00:02.542Z,54.75
2019-04-06T12:02:48.728Z,54.38
2019-04-06T12:05:38.907Z,57.93
2019-04-06T12:08:27.888Z,55.43
2019-04-06T12:11:09.283Z,53.63
2019-04-06T12:13:51.549Z,56.27
2019-04-06T12:16:32.197Z,54.57
2019-04-06T12:19:17.323Z,57.20
2019-04-06T12:22:22.538Z,54.33
2019-04-06T12:25:15.814Z,57.57
2019-04-06T12:28:08.187Z,48.10
2019-04-06T12:30:49.216Z,46.03
2019-04-06T12:33:38.929Z,50.97
2019-04-06T12:36:17.344Z,45.63
2019-04-06T12:39:14.158Z,43.83
2019-04-06T12:42:02.923Z,49.83
2019-04-06T12:44:44.708Z,52.00
2019-04-06T12:47:34.256Z,55.43
2019-04-06T12:50:28.863Z,46.28
2019-04-06T12:53:12.639Z,46.37
2019-04-06T12:56:10.614Z,41.25
2019-04-06T12:58:59.659Z,40.38
2019-04-06T13:01:37.048Z,41.23
2019-04-06T13:04:20.056Z,40.52
2019-04-06T13:07:13.067Z,49.27
2019-04-06T13:10:11.395Z,37.45
2019-04-06T13:13:03.453Z,32.80
2019-04-06T13:15:53.845Z,39.23
2019-04-06T13:18:34.532Z,37.17
2019-04-06T13:21:19.553Z,37.50
2019-04-06T13:23:58.442Z,30.23
2019-04-06T13:26:51.103Z,33.07
2019-04-06T13:29:29.154Z,29.97
2019-04-06T13:32:18.119Z,37.10
2019-04-06T13:35:11.603Z,30.00
2019-04-06T13:37:54.736Z,33.57
2019-04-06T13:40:43.741Z,34.17
2019-04-06T13:43:36.377Z,28.57
2019-04-06T13:46:24.866Z,28.23
2019-04-06T13:49:06.845Z,27.87
2019-04-06T13:51:47.032Z,28.97
2019-04-06T13:54:35.478Z,30.70
2019-04-06T13:57:34.698Z,30.00
2019-04-06T14:00:34.799Z,32.33
2019-04-06T14:03:24.713Z,32.10
2019-04-06T14:06:14.194Z,32.57
2019-04-06T14:09:00.698Z,28.77
2019-04-06T14:11:52.417Z,26.53
2019-04-06T14:14:42.151Z,30.10
2019-04-06T14:17:27.216Z,29.83
2019-04-06T14:20:19.334Z,26.13
2019-04-06T14:23:09.239Z,23.87
2019-04-06T14:26:17.667Z,22.33
2019-04-06T14:28:58.590Z,15.90
2019-04-06T14:31:42.030Z,15.33
2019-04-06T14:34:45.864Z,14.93
2019-04-06T14:37:23.197Z,15.58
2019-04-06T14:40:12.926Z,14.60
2019-04-06T14:42:55.492Z,16.40
2019-04-06T14:45:34.933Z,15.30
2019-04-06T14:48:27.960Z,15.40
2019-04-06T14:51:12.691Z,16.80
2019-04-06T14:53:48.204Z,18.52
2019-04-06T14:56:24.387Z,19.37
2019-04-06T14:59:13.501Z,23.90
2019-04-06T15:02:10.313Z,22.07
2019-04-06T15:05:06.775Z,21.75
2019-04-06T15:07:57.092Z,24.87
2019-04-06T15:10:54.563Z,24.73
2019-04-06T15:13:54.198Z,23.93
2019-04-06T15:16:47.094Z,27.77
2019-04-06T15:19:37.986Z,25.20
2019-04-06T15:22:19.794Z,25.25
2019-04-06T15:25:03.803Z,23.13
2019-04-06T15:27:49.902Z,28.43
2019-04-06T15:30:51.898Z,27.10
2019-04-06T15:33:40.656Z,30.67
2019-04-06T15:36:33.979Z,25.75
2019-04-06T15:39:16.976Z,25.35
2019-04-06T15:41:57.396Z,24.00
2019-04-06T15:44:50.395Z,35.00
2019-04-06T15:47:40.254Z,27.27
2019-04-06T15:50:22.301Z,19.07
2019-04-06T15:53:27.784Z,16.77
2019-04-06T15:56:29.953Z,14.80
2019-04-06T15:59:20.250Z,15.60
2019-04-06T16:02:12.195Z,19.47
2019-04-06T16:04:52.272Z,16.70
2019-04-06T16:07:33.608Z,16.30
2019-04-06T16:10:12.699Z,18.30
2019-04-06T16:12:53.012Z,17.00
2019-04-06T16:15:40.735Z,16.53
2019-04-06T16:18:35.909Z,18.20
2019-04-06T16:21:31.312Z,17.90
2019-04-06T16:24:21.869Z,22.03
2019-04-06T16:27:01.254Z,20.43
2019-04-06T16:29:54.005Z,17.57
2019-04-06T16:32:34.267Z,21.33
2019-04-06T16:35:23.536Z,25.77
2019-04-06T16:38:12.490Z,19.17
2019-04-06T16:41:11.451Z,23.73
2019-04-06T16:43:51.273Z,18.30
2019-04-06T16:46:41.428Z,20.60
2019-04-06T16:49:23.362Z,20.73
2019-04-06T16:52:22.086Z,24.27
2019-04-06T16:55:09.341Z,19.43
2019-04-06T16:57:59.793Z,17.90
2019-04-06T17:00:37.674Z,22.47
2019-04-06T17:03:14.290Z,20.45
2019-04-06T17:05:59.931Z,20.43
2019-04-06T17:08:41.264Z,23.67
2019-04-06T17:11:40.425Z,17.75
2019-04-06T17:14:23.017Z,20.60
2019-04-06T17:17:19.760Z,23.67
2019-04-06T17:20:00.825Z,17.27
2019-04-06T17:22:45.261Z,20.62
2019-04-06T17:25:25.636Z,26.67
2019-04-06T17:28:18.330Z,24.40
2019-04-06T17:31:23.406Z,27.83
2019-04-06T17:34:09.836Z,18.73
2019-04-06T17:36:48.194Z,19.17
2019-04-06T17:39:28.793Z,24.23
2019-04-06T17:42:26.078Z,26.10
2019-04-06T17:45:22.060Z,20.33
2019-04-06T17:48:18.457Z,18.37
2019-04-06T17:51:11.419Z,25.60
2019-04-06T17:54:00.610Z,21.95
2019-04-06T17:56:49.925Z,24.77
2019-04-06T17:59:41.491Z,24.23
2019-04-06T18:02:24.545Z,27.58
2019-04-06T18:05:08.119Z,24.80
2019-04-06T18:08:07.167Z,22.57
2019-04-06T18:10:57.094Z,22.13
2019-04-06T18:13:56.551Z,23.23
2019-04-06T18:16:35.614Z,22.90
2019-04-06T18:19:10.217Z,25.67
2019-04-06T18:21:41.266Z,20.30
2019-04-06T18:24:12.099Z,18.02
2019-04-06T18:26:43.266Z,29.00
2019-04-06T18:29:14.591Z,22.17
2019-04-06T18:31:51.508Z,25.48
2019-04-06T18:34:22.913Z,18.30
2019-04-06T18:37:07.013Z,17.70
2019-04-06T18:39:38.226Z,24.18
2019-04-06T18:42:09.625Z,18.73
2019-04-06T18:44:41.103Z,16.47
2019-04-06T18:47:12.094Z,21.50
2019-04-06T18:49:44.278Z,18.48
2019-04-06T18:52:16.775Z,18.85
2019-04-06T18:54:48.699Z,20.27
2019-04-06T18:57:20.943Z,20.48
2019-04-06T18:59:51.897Z,20.87
2019-04-06T19:02:23.866Z,17.53
2019-04-06T19:04:55.247Z,19.87
2019-04-06T19:07:26.331Z,17.03
2019-04-06T19:09:57.613Z,18.07
2019-04-06T19:12:29.212Z,20.43
2019-04-06T19:15:00.245Z,21.90
2019-04-06T19:17:31.991Z,18.37
2019-04-06T19:20:05.663Z,20.37
2019-04-06T19:22:36.660Z,22.40
2019-04-06T19:25:08.072Z,18.63
2019-04-06T19:27:40.646Z,23.67
2019-04-06T19:30:12.845Z,19.17
2019-04-06T19:32:43.810Z,21.73
2019-04-06T19:35:14.792Z,21.73
2019-04-06T19:37:45.661Z,17.47
2019-04-06T19:40:16.717Z,16.30
2019-04-06T19:42:47.573Z,25.62
2019-04-06T19:45:19.655Z,18.90
2019-04-06T19:47:50.455Z,22.33
2019-04-06T19:50:22.171Z,20.37
2019-04-06T19:52:53.052Z,18.73
2019-04-06T19:55:24.537Z,23.43
2019-04-06T19:57:55.336Z,21.53
2019-04-06T20:00:27.197Z,21.40
2019-04-06T20:02:58.013Z,22.47
2019-04-06T20:05:31.179Z,27.37
2019-04-06T20:08:02.305Z,22.43
2019-04-06T20:10:36.337Z,18.50
2019-04-06T20:13:07.535Z,19.10
2019-04-06T20:15:38.835Z,21.00
2019-04-06T20:18:12.388Z,22.58
2019-04-06T20:20:43.194Z,19.43
2019-04-06T20:23:14.057Z,22.82
2019-04-06T20:25:45.298Z,24.07
2019-04-06T20:28:16.282Z,22.60
2019-04-06T20:30:47.739Z,18.53
2019-04-06T20:33:20.528Z,23.30
2019-04-06T20:35:52.116Z,20.37
2019-04-06T20:38:23.513Z,21.45
2019-04-06T20:40:54.389Z,23.57
2019-04-06T20:43:25.802Z,23.60
2019-04-06T20:45:58.011Z,27.17
2019-04-06T20:48:29.390Z,25.33
2019-04-06T20:51:00.423Z,25.17
2019-04-06T20:53:31.970Z,23.00
2019-04-06T20:56:03.440Z,22.27
2019-04-06T20:58:34.714Z,27.17
2019-04-06T21:01:06.832Z,21.87
2019-04-06T21:03:37.921Z,28.03
2019-04-06T21:06:08.937Z,21.60
2019-04-06T21:08:40.172Z,19.37
2019-04-06T21:11:12.857Z,23.65
2019-04-06T21:13:44.269Z,23.27
2019-04-06T21:16:15.309Z,25.17
2019-04-06T21:18:46.963Z,22.25
2019-04-06T21:21:19.416Z,22.87
2019-04-06T21:23:50.389Z,24.03
2019-04-06T21:26:21.578Z,31.57
2019-04-06T21:28:53.073Z,22.53
2019-04-06T21:31:24.476Z,20.53
2019-04-06T21:33:55.893Z,20.20
2019-04-06T21:36:27.265Z,20.17
2019-04-06T21:38:58.695Z,22.20
2019-04-06T21:41:35.367Z,21.43
2019-04-06T21:44:07.551Z,25.20
2019-04-06T21:46:40.360Z,25.50
2019-04-06T21:49:11.535Z,21.77
2019-04-06T21:51:42.630Z,24.52
2019-04-06T21:54:14.985Z,18.65
2019-04-06T21:56:45.926Z,28.77
2019-04-06T21:59:17.561Z,23.32
2019-04-06T22:01:50.249Z,21.73
2019-04-06T22:04:25.983Z,24.40
2019-04-06T22:06:54.030Z,22.13
2019-04-06T22:09:25.441Z,26.25
2019-04-06T22:11:56.842Z,23.87
2019-04-06T22:14:29.292Z,23.43
2019-04-06T22:17:00.404Z,24.10
2019-04-06T22:19:31.486Z,23.30
2019-04-06T22:22:03.567Z,25.37
2019-04-06T22:24:34.994Z,26.90
2019-04-06T22:27:06.414Z,22.10
2019-04-06T22:29:38.512Z,26.83
2019-04-06T22:32:09.654Z,21.30
2019-04-06T22:34:41.741Z,22.50
2019-04-06T22:37:13.886Z,21.15
2019-04-06T22:39:45.371Z,20.87
2019-04-06T22:42:16.622Z,25.27
2019-04-06T22:44:47.700Z,31.60
2019-04-06T22:47:18.943Z,25.75
2019-04-06T22:49:50.175Z,25.37
2019-04-06T22:52:21.153Z,29.15
2019-04-06T22:54:52.462Z,20.40
2019-04-06T22:57:23.949Z,22.53
2019-04-06T22:59:56.379Z,25.03
2019-04-06T23:02:28.925Z,22.97
2019-04-06T23:05:06.471Z,27.20
2019-04-06T23:07:37.529Z,24.17
2019-04-06T23:10:09.088Z,28.50
2019-04-06T23:12:40.405Z,26.90
2019-04-06T23:15:11.595Z,28.27
2019-04-06T23:17:42.418Z,23.00
2019-04-06T23:20:13.962Z,21.87
2019-04-06T23:22:45.552Z,22.30
2019-04-06T23:25:16.957Z,26.20
2019-04-06T23:27:48.608Z,24.67
2019-04-06T23:30:19.886Z,21.55
2019-04-06T23:32:52.241Z,20.08
2019-04-06T23:35:23.568Z,22.53
2019-04-06T23:37:54.949Z,26.15
2019-04-06T23:40:25.998Z,20.40
2019-04-06T23:42:56.853Z,25.13
2019-04-06T23:45:27.702Z,22.23
2019-04-06T23:47:59.403Z,25.00
2019-04-06T23:50:30.325Z,34.00
2019-04-06T23:53:01.423Z,25.30
2019-04-06T23:55:32.745Z,27.13
2019-04-06T23:58:03.874Z,21.67
